sensor_id;sensor_type;location;lat;lon;timestamp;temperature;humidity
45044;DHT22;30784;48.490;9.688;2023-04-26T00:00:16;9.10;55.40
45044;DHT22;30784;48.490;9.688;2023-04-26T00:02:42;9.10;55.30
45044;DHT22;30784;48.490;9.688;2023-04-26T00:05:08;9.10;55.30
45044;DHT22;30784;48.490;9.688;2023-04-26T00:07:34;9.20;55.30
45044;DHT22;30784;48.490;9.688;2023-04-26T00:10:00;9.10;55.30
45044;DHT22;30784;48.490;9.688;2023-04-26T00:12:25;9.10;55.30
45044;DHT22;30784;48.490;9.688;2023-04-26T00:14:51;9.20;55.30
45044;DHT22;30784;48.490;9.688;2023-04-26T00:17:17;9.20;55.20
45044;DHT22;30784;48.490;9.688;2023-04-26T00:19:42;9.10;55.20
45044;DHT22;30784;48.490;9.688;2023-04-26T00:22:08;9.10;55.30
45044;DHT22;30784;48.490;9.688;2023-04-26T00:24:34;9.20;55.20
45044;DHT22;30784;48.490;9.688;2023-04-26T00:26:59;9.10;55.20
45044;DHT22;30784;48.490;9.688;2023-04-26T00:29:26;9.10;55.10
45044;DHT22;30784;48.490;9.688;2023-04-26T00:31:52;9.10;55.10
45044;DHT22;30784;48.490;9.688;2023-04-26T00:34:17;9.10;55.00
45044;DHT22;30784;48.490;9.688;2023-04-26T00:36:43;9.10;54.90
45044;DHT22;30784;48.490;9.688;2023-04-26T00:39:08;9.10;54.90
45044;DHT22;30784;48.490;9.688;2023-04-26T00:41:34;9.10;54.80
45044;DHT22;30784;48.490;9.688;2023-04-26T00:44:00;9.10;54.80
45044;DHT22;30784;48.490;9.688;2023-04-26T00:46:26;9.00;54.70
45044;DHT22;30784;48.490;9.688;2023-04-26T00:48:53;9.00;54.60
45044;DHT22;30784;48.490;9.688;2023-04-26T00:51:19;9.00;54.60
45044;DHT22;30784;48.490;9.688;2023-04-26T00:53:45;9.00;54.50
45044;DHT22;30784;48.490;9.688;2023-04-26T00:56:11;9.00;54.60
45044;DHT22;30784;48.490;9.688;2023-04-26T00:58:37;9.00;54.60
45044;DHT22;30784;48.490;9.688;2023-04-26T01:01:03;8.90;54.50
45044;DHT22;30784;48.490;9.688;2023-04-26T01:03:29;8.90;55.00
45044;DHT22;30784;48.490;9.688;2023-04-26T01:05:54;8.90;54.50
45044;DHT22;30784;48.490;9.688;2023-04-26T01:08:20;8.90;54.50
45044;DHT22;30784;48.490;9.688;2023-04-26T01:10:48;8.80;54.50
45044;DHT22;30784;48.490;9.688;2023-04-26T01:13:14;8.80;54.50
45044;DHT22;30784;48.490;9.688;2023-04-26T01:15:44;8.80;54.60
45044;DHT22;30784;48.490;9.688;2023-04-26T01:18:10;8.80;54.60
45044;DHT22;30784;48.490;9.688;2023-04-26T01:20:36;8.70;54.60
45044;DHT22;30784;48.490;9.688;2023-04-26T01:23:02;8.70;54.70
45044;DHT22;30784;48.490;9.688;2023-04-26T01:25:28;8.70;54.70
45044;DHT22;30784;48.490;9.688;2023-04-26T01:27:53;8.70;54.70
45044;DHT22;30784;48.490;9.688;2023-04-26T01:30:19;8.60;54.80
45044;DHT22;30784;48.490;9.688;2023-04-26T01:32:45;8.60;54.70
45044;DHT22;30784;48.490;9.688;2023-04-26T01:35:10;8.60;54.60
45044;DHT22;30784;48.490;9.688;2023-04-26T01:37:36;8.60;54.60
45044;DHT22;30784;48.490;9.688;2023-04-26T01:40:02;8.60;54.70
45044;DHT22;30784;48.490;9.688;2023-04-26T01:42:30;8.60;54.70
45044;DHT22;30784;48.490;9.688;2023-04-26T01:44:56;8.60;54.80
45044;DHT22;30784;48.490;9.688;2023-04-26T01:47:21;8.60;54.90
45044;DHT22;30784;48.490;9.688;2023-04-26T01:49:47;8.50;54.80
45044;DHT22;30784;48.490;9.688;2023-04-26T01:52:13;8.50;54.80
45044;DHT22;30784;48.490;9.688;2023-04-26T01:54:38;8.50;54.80
45044;DHT22;30784;48.490;9.688;2023-04-26T01:57:04;8.50;54.80
45044;DHT22;30784;48.490;9.688;2023-04-26T01:59:29;8.50;54.80
45044;DHT22;30784;48.490;9.688;2023-04-26T02:01:55;8.50;54.80
45044;DHT22;30784;48.490;9.688;2023-04-26T02:04:20;8.40;54.80
45044;DHT22;30784;48.490;9.688;2023-04-26T02:06:46;8.40;54.90
45044;DHT22;30784;48.490;9.688;2023-04-26T02:09:11;8.40;54.90
45044;DHT22;30784;48.490;9.688;2023-04-26T02:11:37;8.40;54.90
45044;DHT22;30784;48.490;9.688;2023-04-26T02:14:02;8.30;55.00
45044;DHT22;30784;48.490;9.688;2023-04-26T02:16:28;8.30;55.00
45044;DHT22;30784;48.490;9.688;2023-04-26T02:18:53;8.30;55.20
45044;DHT22;30784;48.490;9.688;2023-04-26T02:21:20;8.20;55.20
45044;DHT22;30784;48.490;9.688;2023-04-26T02:23:46;8.20;55.30
45044;DHT22;30784;48.490;9.688;2023-04-26T02:26:12;8.20;55.40
45044;DHT22;30784;48.490;9.688;2023-04-26T02:28:38;8.20;55.50
45044;DHT22;30784;48.490;9.688;2023-04-26T02:31:03;8.10;55.50
45044;DHT22;30784;48.490;9.688;2023-04-26T02:33:29;8.10;55.50
45044;DHT22;30784;48.490;9.688;2023-04-26T02:35:55;8.10;55.60
45044;DHT22;30784;48.490;9.688;2023-04-26T02:38:20;8.10;55.60
45044;DHT22;30784;48.490;9.688;2023-04-26T02:40:46;8.10;55.70
45044;DHT22;30784;48.490;9.688;2023-04-26T02:43:12;8.10;55.70
45044;DHT22;30784;48.490;9.688;2023-04-26T02:45:41;8.10;55.70
45044;DHT22;30784;48.490;9.688;2023-04-26T02:48:09;8.10;55.70
45044;DHT22;30784;48.490;9.688;2023-04-26T02:50:35;8.10;55.90
45044;DHT22;30784;48.490;9.688;2023-04-26T02:53:00;8.10;55.90
45044;DHT22;30784;48.490;9.688;2023-04-26T02:55:27;8.10;55.80
45044;DHT22;30784;48.490;9.688;2023-04-26T02:57:53;8.10;55.90
45044;DHT22;30784;48.490;9.688;2023-04-26T03:00:19;8.00;55.80
45044;DHT22;30784;48.490;9.688;2023-04-26T03:02:44;8.10;56.00
45044;DHT22;30784;48.490;9.688;2023-04-26T03:05:10;8.00;55.90
45044;DHT22;30784;48.490;9.688;2023-04-26T03:07:36;8.10;56.10
45044;DHT22;30784;48.490;9.688;2023-04-26T03:10:01;8.10;56.10
45044;DHT22;30784;48.490;9.688;2023-04-26T03:12:27;8.10;56.10
45044;DHT22;30784;48.490;9.688;2023-04-26T03:14:52;8.10;56.10
45044;DHT22;30784;48.490;9.688;2023-04-26T03:17:18;8.10;56.10
45044;DHT22;30784;48.490;9.688;2023-04-26T03:19:43;8.10;56.10
45044;DHT22;30784;48.490;9.688;2023-04-26T03:22:09;8.10;56.20
45044;DHT22;30784;48.490;9.688;2023-04-26T03:24:41;8.10;56.10
45044;DHT22;30784;48.490;9.688;2023-04-26T03:27:06;8.10;56.20
45044;DHT22;30784;48.490;9.688;2023-04-26T03:29:32;8.10;56.20
45044;DHT22;30784;48.490;9.688;2023-04-26T03:31:58;8.10;56.10
45044;DHT22;30784;48.490;9.688;2023-04-26T03:34:23;8.00;56.00
45044;DHT22;30784;48.490;9.688;2023-04-26T03:36:49;8.10;56.00
45044;DHT22;30784;48.490;9.688;2023-04-26T03:39:14;8.10;56.00
45044;DHT22;30784;48.490;9.688;2023-04-26T03:41:40;8.10;55.90
45044;DHT22;30784;48.490;9.688;2023-04-26T03:44:06;8.10;55.90
45044;DHT22;30784;48.490;9.688;2023-04-26T03:46:31;8.00;55.80
45044;DHT22;30784;48.490;9.688;2023-04-26T03:48:57;8.00;55.80
45044;DHT22;30784;48.490;9.688;2023-04-26T03:51:22;8.00;55.90
45044;DHT22;30784;48.490;9.688;2023-04-26T03:53:48;8.00;55.90
45044;DHT22;30784;48.490;9.688;2023-04-26T03:56:13;7.90;55.90
45044;DHT22;30784;48.490;9.688;2023-04-26T03:58:39;7.90;55.90
45044;DHT22;30784;48.490;9.688;2023-04-26T04:01:04;7.90;56.00
45044;DHT22;30784;48.490;9.688;2023-04-26T04:03:30;7.90;56.00
45044;DHT22;30784;48.490;9.688;2023-04-26T04:05:55;7.80;56.00
45044;DHT22;30784;48.490;9.688;2023-04-26T04:08:21;7.80;56.00
45044;DHT22;30784;48.490;9.688;2023-04-26T04:10:47;7.80;56.20
45044;DHT22;30784;48.490;9.688;2023-04-26T04:13:12;7.80;56.20
45044;DHT22;30784;48.490;9.688;2023-04-26T04:15:38;7.80;56.20
45044;DHT22;30784;48.490;9.688;2023-04-26T04:18:03;7.80;56.30
45044;DHT22;30784;48.490;9.688;2023-04-26T04:20:29;7.80;56.30
45044;DHT22;30784;48.490;9.688;2023-04-26T04:22:55;7.80;56.30
45044;DHT22;30784;48.490;9.688;2023-04-26T04:25:22;7.80;56.30
45044;DHT22;30784;48.490;9.688;2023-04-26T04:27:48;7.80;56.30
45044;DHT22;30784;48.490;9.688;2023-04-26T04:30:14;7.80;56.30
45044;DHT22;30784;48.490;9.688;2023-04-26T04:32:40;7.80;56.20
45044;DHT22;30784;48.490;9.688;2023-04-26T04:35:09;7.80;56.20
45044;DHT22;30784;48.490;9.688;2023-04-26T04:37:35;7.80;56.20
45044;DHT22;30784;48.490;9.688;2023-04-26T04:40:00;7.80;56.10
45044;DHT22;30784;48.490;9.688;2023-04-26T04:42:26;7.70;56.10
45044;DHT22;30784;48.490;9.688;2023-04-26T04:44:53;7.80;56.70
45044;DHT22;30784;48.490;9.688;2023-04-26T04:47:18;7.70;56.20
45044;DHT22;30784;48.490;9.688;2023-04-26T04:49:44;7.70;56.20
45044;DHT22;30784;48.490;9.688;2023-04-26T04:52:10;7.70;56.20
45044;DHT22;30784;48.490;9.688;2023-04-26T04:54:35;7.70;56.20
45044;DHT22;30784;48.490;9.688;2023-04-26T04:57:01;7.70;56.30
45044;DHT22;30784;48.490;9.688;2023-04-26T04:59:28;7.70;56.30
45044;DHT22;30784;48.490;9.688;2023-04-26T05:01:54;7.70;56.30
45044;DHT22;30784;48.490;9.688;2023-04-26T05:04:20;7.70;56.40
45044;DHT22;30784;48.490;9.688;2023-04-26T05:06:45;7.70;56.40
45044;DHT22;30784;48.490;9.688;2023-04-26T05:09:11;7.70;56.50
45044;DHT22;30784;48.490;9.688;2023-04-26T05:11:36;7.70;56.60
45044;DHT22;30784;48.490;9.688;2023-04-26T05:14:02;7.70;56.60
45044;DHT22;30784;48.490;9.688;2023-04-26T05:16:28;7.70;56.70
45044;DHT22;30784;48.490;9.688;2023-04-26T05:18:53;7.80;56.90
45044;DHT22;30784;48.490;9.688;2023-04-26T05:21:20;7.70;56.90
45044;DHT22;30784;48.490;9.688;2023-04-26T05:23:45;7.70;57.00
45044;DHT22;30784;48.490;9.688;2023-04-26T05:26:13;7.70;57.10
45044;DHT22;30784;48.490;9.688;2023-04-26T05:28:39;7.70;57.10
45044;DHT22;30784;48.490;9.688;2023-04-26T05:31:05;7.80;57.10
45044;DHT22;30784;48.490;9.688;2023-04-26T05:33:31;7.80;57.20
45044;DHT22;30784;48.490;9.688;2023-04-26T05:35:56;7.80;57.20
45044;DHT22;30784;48.490;9.688;2023-04-26T05:38:23;7.80;57.40
45044;DHT22;30784;48.490;9.688;2023-04-26T05:40:48;7.90;57.40
45044;DHT22;30784;48.490;9.688;2023-04-26T05:43:14;7.90;57.50
45044;DHT22;30784;48.490;9.688;2023-04-26T05:45:39;8.00;57.50
45044;DHT22;30784;48.490;9.688;2023-04-26T05:48:05;8.00;57.60
45044;DHT22;30784;48.490;9.688;2023-04-26T05:50:31;8.10;57.80
45044;DHT22;30784;48.490;9.688;2023-04-26T05:52:57;8.20;57.90
45044;DHT22;30784;48.490;9.688;2023-04-26T05:55:22;8.30;58.00
45044;DHT22;30784;48.490;9.688;2023-04-26T05:57:48;8.40;58.00
45044;DHT22;30784;48.490;9.688;2023-04-26T06:00:14;8.50;57.90
45044;DHT22;30784;48.490;9.688;2023-04-26T06:02:41;8.60;57.80
45044;DHT22;30784;48.490;9.688;2023-04-26T06:05:06;8.70;57.80
45044;DHT22;30784;48.490;9.688;2023-04-26T06:07:33;8.90;57.90
45044;DHT22;30784;48.490;9.688;2023-04-26T06:10:00;9.00;57.30
45044;DHT22;30784;48.490;9.688;2023-04-26T06:12:26;9.20;57.00
45044;DHT22;30784;48.490;9.688;2023-04-26T06:14:52;9.30;56.90
45044;DHT22;30784;48.490;9.688;2023-04-26T06:17:17;9.40;56.70
45044;DHT22;30784;48.490;9.688;2023-04-26T06:19:43;9.50;56.20
45044;DHT22;30784;48.490;9.688;2023-04-26T06:22:08;9.60;55.50
45044;DHT22;30784;48.490;9.688;2023-04-26T06:24:34;9.80;55.20
45044;DHT22;30784;48.490;9.688;2023-04-26T06:26:59;9.80;54.80
45044;DHT22;30784;48.490;9.688;2023-04-26T06:29:25;9.90;54.40
45044;DHT22;30784;48.490;9.688;2023-04-26T06:31:50;10.00;54.00
45044;DHT22;30784;48.490;9.688;2023-04-26T06:34:16;10.00;53.70
45044;DHT22;30784;48.490;9.688;2023-04-26T06:36:42;10.10;53.60
45044;DHT22;30784;48.490;9.688;2023-04-26T06:39:07;10.20;53.50
45044;DHT22;30784;48.490;9.688;2023-04-26T06:41:33;10.30;53.40
45044;DHT22;30784;48.490;9.688;2023-04-26T06:43:58;10.40;53.20
45044;DHT22;30784;48.490;9.688;2023-04-26T06:46:24;10.40;52.90
45044;DHT22;30784;48.490;9.688;2023-04-26T06:48:52;10.50;52.70
45044;DHT22;30784;48.490;9.688;2023-04-26T06:51:18;10.60;52.80
45044;DHT22;30784;48.490;9.688;2023-04-26T06:53:43;10.60;52.60
45044;DHT22;30784;48.490;9.688;2023-04-26T06:56:09;10.70;53.00
45044;DHT22;30784;48.490;9.688;2023-04-26T06:58:35;10.80;52.80
45044;DHT22;30784;48.490;9.688;2023-04-26T07:01:00;10.80;52.30
45044;DHT22;30784;48.490;9.688;2023-04-26T07:03:26;10.90;52.20
45044;DHT22;30784;48.490;9.688;2023-04-26T07:05:54;10.90;51.90
45044;DHT22;30784;48.490;9.688;2023-04-26T07:08:20;11.00;51.30
45044;DHT22;30784;48.490;9.688;2023-04-26T07:10:46;11.00;51.60
45044;DHT22;30784;48.490;9.688;2023-04-26T07:13:11;11.00;51.20
45044;DHT22;30784;48.490;9.688;2023-04-26T07:15:37;11.00;50.60
45044;DHT22;30784;48.490;9.688;2023-04-26T07:18:02;11.10;50.90
45044;DHT22;30784;48.490;9.688;2023-04-26T07:20:28;11.10;50.60
45044;DHT22;30784;48.490;9.688;2023-04-26T07:22:53;11.20;50.10
45044;DHT22;30784;48.490;9.688;2023-04-26T07:25:19;11.30;50.30
45044;DHT22;30784;48.490;9.688;2023-04-26T07:27:45;11.30;50.40
45044;DHT22;30784;48.490;9.688;2023-04-26T07:30:10;11.40;49.60
45044;DHT22;30784;48.490;9.688;2023-04-26T07:32:36;11.50;49.90
45044;DHT22;30784;48.490;9.688;2023-04-26T07:35:05;11.60;49.80
45044;DHT22;30784;48.490;9.688;2023-04-26T07:37:31;11.60;48.50
45044;DHT22;30784;48.490;9.688;2023-04-26T07:39:57;11.70;49.30
45044;DHT22;30784;48.490;9.688;2023-04-26T07:42:24;11.80;48.60
45044;DHT22;30784;48.490;9.688;2023-04-26T07:44:49;11.90;49.00
45044;DHT22;30784;48.490;9.688;2023-04-26T07:47:15;12.00;48.70
45044;DHT22;30784;48.490;9.688;2023-04-26T07:49:41;12.00;48.60
45044;DHT22;30784;48.490;9.688;2023-04-26T07:52:07;12.10;47.90
45044;DHT22;30784;48.490;9.688;2023-04-26T07:54:33;12.20;48.00
45044;DHT22;30784;48.490;9.688;2023-04-26T07:56:59;12.30;47.20
45044;DHT22;30784;48.490;9.688;2023-04-26T07:59:24;12.30;47.60
45044;DHT22;30784;48.490;9.688;2023-04-26T08:01:50;12.30;47.00
45044;DHT22;30784;48.490;9.688;2023-04-26T08:04:19;12.40;46.80
45044;DHT22;30784;48.490;9.688;2023-04-26T08:06:45;12.40;46.60
45044;DHT22;30784;48.490;9.688;2023-04-26T08:09:12;12.50;46.80
45044;DHT22;30784;48.490;9.688;2023-04-26T08:11:38;12.50;46.90
45044;DHT22;30784;48.490;9.688;2023-04-26T08:14:04;12.60;46.50
45044;DHT22;30784;48.490;9.688;2023-04-26T08:16:30;12.60;47.10
45044;DHT22;30784;48.490;9.688;2023-04-26T08:18:56;12.70;46.80
45044;DHT22;30784;48.490;9.688;2023-04-26T08:21:26;12.90;46.50
45044;DHT22;30784;48.490;9.688;2023-04-26T08:23:52;13.00;46.60
45044;DHT22;30784;48.490;9.688;2023-04-26T08:26:18;13.20;47.40
45044;DHT22;30784;48.490;9.688;2023-04-26T08:28:43;13.30;46.10
45044;DHT22;30784;48.490;9.688;2023-04-26T08:31:09;13.50;45.40
45044;DHT22;30784;48.490;9.688;2023-04-26T08:33:34;13.80;45.70
45044;DHT22;30784;48.490;9.688;2023-04-26T08:36:00;14.00;45.40
45044;DHT22;30784;48.490;9.688;2023-04-26T08:38:26;14.10;44.80
45044;DHT22;30784;48.490;9.688;2023-04-26T08:40:55;14.30;44.70
45044;DHT22;30784;48.490;9.688;2023-04-26T08:43:22;14.50;44.00
45044;DHT22;30784;48.490;9.688;2023-04-26T08:45:48;14.60;44.30
45044;DHT22;30784;48.490;9.688;2023-04-26T08:48:15;14.80;44.30
45044;DHT22;30784;48.490;9.688;2023-04-26T08:50:43;14.90;43.40
45044;DHT22;30784;48.490;9.688;2023-04-26T08:53:15;15.00;43.60
45044;DHT22;30784;48.490;9.688;2023-04-26T08:55:46;15.10;42.90
45044;DHT22;30784;48.490;9.688;2023-04-26T08:58:11;15.20;45.40
45044;DHT22;30784;48.490;9.688;2023-04-26T09:00:37;15.20;42.00
45044;DHT22;30784;48.490;9.688;2023-04-26T09:03:03;15.20;41.70
45044;DHT22;30784;48.490;9.688;2023-04-26T09:05:28;15.10;41.90
45044;DHT22;30784;48.490;9.688;2023-04-26T09:08:00;15.10;40.80
45044;DHT22;30784;48.490;9.688;2023-04-26T09:10:26;15.00;41.00
45044;DHT22;30784;48.490;9.688;2023-04-26T09:12:52;14.80;40.60
45044;DHT22;30784;48.490;9.688;2023-04-26T09:15:20;14.70;40.80
45044;DHT22;30784;48.490;9.688;2023-04-26T09:17:47;14.60;40.90
45044;DHT22;30784;48.490;9.688;2023-04-26T09:20:24;14.50;41.00
45044;DHT22;30784;48.490;9.688;2023-04-26T09:23:03;14.50;41.60
45044;DHT22;30784;48.490;9.688;2023-04-26T09:25:31;14.40;41.80
45044;DHT22;30784;48.490;9.688;2023-04-26T09:27:57;14.30;41.50
45044;DHT22;30784;48.490;9.688;2023-04-26T09:30:23;14.40;41.50
45044;DHT22;30784;48.490;9.688;2023-04-26T09:33:00;14.40;41.10
45044;DHT22;30784;48.490;9.688;2023-04-26T09:35:36;14.50;41.90
45044;DHT22;30784;48.490;9.688;2023-04-26T09:38:15;14.60;41.70
45044;DHT22;30784;48.490;9.688;2023-04-26T09:40:42;14.70;41.10
45044;DHT22;30784;48.490;9.688;2023-04-26T09:43:19;14.80;40.80
45044;DHT22;30784;48.490;9.688;2023-04-26T09:45:53;14.80;41.20
45044;DHT22;30784;48.490;9.688;2023-04-26T09:48:23;14.80;40.30
45044;DHT22;30784;48.490;9.688;2023-04-26T09:51:12;14.80;40.40
45044;DHT22;30784;48.490;9.688;2023-04-26T09:53:40;14.80;41.30
45044;DHT22;30784;48.490;9.688;2023-04-26T09:56:12;14.90;40.20
45044;DHT22;30784;48.490;9.688;2023-04-26T09:58:59;15.00;40.30
45044;DHT22;30784;48.490;9.688;2023-04-26T10:01:29;15.10;40.50
45044;DHT22;30784;48.490;9.688;2023-04-26T10:03:56;15.10;40.30
45044;DHT22;30784;48.490;9.688;2023-04-26T10:06:22;15.20;40.00
45044;DHT22;30784;48.490;9.688;2023-04-26T10:08:49;15.20;40.70
45044;DHT22;30784;48.490;9.688;2023-04-26T10:11:14;15.30;39.10
45044;DHT22;30784;48.490;9.688;2023-04-26T10:13:40;15.30;39.00
45044;DHT22;30784;48.490;9.688;2023-04-26T10:16:08;15.30;38.70
45044;DHT22;30784;48.490;9.688;2023-04-26T10:18:34;15.20;38.80
45044;DHT22;30784;48.490;9.688;2023-04-26T10:21:11;15.20;39.10
45044;DHT22;30784;48.490;9.688;2023-04-26T10:23:39;15.10;39.20
45044;DHT22;30784;48.490;9.688;2023-04-26T10:26:05;15.10;38.80
45044;DHT22;30784;48.490;9.688;2023-04-26T10:31:09;14.90;39.00
45044;DHT22;30784;48.490;9.688;2023-04-26T10:33:35;14.90;38.60
45044;DHT22;30784;48.490;9.688;2023-04-26T10:36:04;14.80;38.10
45044;DHT22;30784;48.490;9.688;2023-04-26T10:38:31;14.70;38.20
45044;DHT22;30784;48.490;9.688;2023-04-26T10:41:29;14.60;38.00
45044;DHT22;30784;48.490;9.688;2023-04-26T10:43:56;14.50;38.90
45044;DHT22;30784;48.490;9.688;2023-04-26T10:46:40;14.40;38.40
45044;DHT22;30784;48.490;9.688;2023-04-26T10:49:20;14.40;39.00
45044;DHT22;30784;48.490;9.688;2023-04-26T10:52:15;14.40;39.10
45044;DHT22;30784;48.490;9.688;2023-04-26T10:54:54;14.50;39.80
45044;DHT22;30784;48.490;9.688;2023-04-26T10:57:21;14.60;39.80
45044;DHT22;30784;48.490;9.688;2023-04-26T11:03:03;15.00;39.70
45044;DHT22;30784;48.490;9.688;2023-04-26T11:05:37;15.20;39.50
45044;DHT22;30784;48.490;9.688;2023-04-26T11:08:04;15.40;38.60
45044;DHT22;30784;48.490;9.688;2023-04-26T11:10:29;15.50;38.30
45044;DHT22;30784;48.490;9.688;2023-04-26T11:13:00;15.60;37.90
45044;DHT22;30784;48.490;9.688;2023-04-26T11:15:25;15.60;38.30
45044;DHT22;30784;48.490;9.688;2023-04-26T11:17:51;15.60;38.10
45044;DHT22;30784;48.490;9.688;2023-04-26T11:20:16;15.70;37.20
45044;DHT22;30784;48.490;9.688;2023-04-26T11:22:42;15.70;37.00
45044;DHT22;30784;48.490;9.688;2023-04-26T11:25:08;15.70;37.20
45044;DHT22;30784;48.490;9.688;2023-04-26T11:27:34;15.70;37.30
45044;DHT22;30784;48.490;9.688;2023-04-26T11:30:03;15.70;37.30
45044;DHT22;30784;48.490;9.688;2023-04-26T11:32:29;15.80;37.60
45044;DHT22;30784;48.490;9.688;2023-04-26T11:34:59;15.80;37.40
45044;DHT22;30784;48.490;9.688;2023-04-26T11:37:25;15.90;37.20
45044;DHT22;30784;48.490;9.688;2023-04-26T11:39:50;16.00;37.20
45044;DHT22;30784;48.490;9.688;2023-04-26T11:42:16;16.10;37.40
45044;DHT22;30784;48.490;9.688;2023-04-26T11:44:41;16.10;37.10
45044;DHT22;30784;48.490;9.688;2023-04-26T11:47:08;16.20;37.00
45044;DHT22;30784;48.490;9.688;2023-04-26T11:49:37;16.20;37.20
45044;DHT22;30784;48.490;9.688;2023-04-26T11:52:03;16.20;37.10
45044;DHT22;30784;48.490;9.688;2023-04-26T11:54:30;16.30;37.00
45044;DHT22;30784;48.490;9.688;2023-04-26T11:56:57;16.30;36.90
45044;DHT22;30784;48.490;9.688;2023-04-26T11:59:23;16.20;36.60
45044;DHT22;30784;48.490;9.688;2023-04-26T12:01:49;16.20;36.70
45044;DHT22;30784;48.490;9.688;2023-04-26T12:04:16;16.20;36.60
45044;DHT22;30784;48.490;9.688;2023-04-26T12:06:43;16.20;36.30
45044;DHT22;30784;48.490;9.688;2023-04-26T12:09:09;16.20;36.90
45044;DHT22;30784;48.490;9.688;2023-04-26T12:11:38;16.20;36.60
45044;DHT22;30784;48.490;9.688;2023-04-26T12:14:04;16.20;36.40
45044;DHT22;30784;48.490;9.688;2023-04-26T12:16:30;16.30;36.30
45044;DHT22;30784;48.490;9.688;2023-04-26T12:18:56;16.30;36.50
45044;DHT22;30784;48.490;9.688;2023-04-26T12:21:22;16.40;36.30
45044;DHT22;30784;48.490;9.688;2023-04-26T12:23:51;16.40;36.30
45044;DHT22;30784;48.490;9.688;2023-04-26T12:26:17;16.40;36.20
45044;DHT22;30784;48.490;9.688;2023-04-26T12:28:44;16.50;35.70
45044;DHT22;30784;48.490;9.688;2023-04-26T12:31:11;16.50;35.70
45044;DHT22;30784;48.490;9.688;2023-04-26T12:33:37;16.50;35.90
45044;DHT22;30784;48.490;9.688;2023-04-26T12:36:11;16.60;35.90
45044;DHT22;30784;48.490;9.688;2023-04-26T12:38:37;16.60;35.80
45044;DHT22;30784;48.490;9.688;2023-04-26T12:41:03;16.60;35.40
45044;DHT22;30784;48.490;9.688;2023-04-26T12:43:29;16.60;35.60
45044;DHT22;30784;48.490;9.688;2023-04-26T12:45:55;16.70;35.50
45044;DHT22;30784;48.490;9.688;2023-04-26T12:48:21;16.70;35.20
45044;DHT22;30784;48.490;9.688;2023-04-26T12:50:46;16.70;35.30
45044;DHT22;30784;48.490;9.688;2023-04-26T12:53:12;16.70;35.10
45044;DHT22;30784;48.490;9.688;2023-04-26T12:55:38;16.70;34.90
45044;DHT22;30784;48.490;9.688;2023-04-26T12:58:04;16.70;35.50
45044;DHT22;30784;48.490;9.688;2023-04-26T13:00:29;16.80;35.10
45044;DHT22;30784;48.490;9.688;2023-04-26T13:02:55;16.80;34.90
45044;DHT22;30784;48.490;9.688;2023-04-26T13:05:22;16.90;34.90
45044;DHT22;30784;48.490;9.688;2023-04-26T13:07:49;16.90;34.90
45044;DHT22;30784;48.490;9.688;2023-04-26T13:10:15;17.00;34.70
45044;DHT22;30784;48.490;9.688;2023-04-26T13:12:41;17.00;34.60
45044;DHT22;30784;48.490;9.688;2023-04-26T13:15:08;17.00;34.30
45044;DHT22;30784;48.490;9.688;2023-04-26T13:17:35;17.00;34.50
45044;DHT22;30784;48.490;9.688;2023-04-26T13:20:02;17.10;34.40
45044;DHT22;30784;48.490;9.688;2023-04-26T13:22:28;17.10;34.00
45044;DHT22;30784;48.490;9.688;2023-04-26T13:24:54;17.10;33.90
45044;DHT22;30784;48.490;9.688;2023-04-26T13:27:19;17.10;33.90
45044;DHT22;30784;48.490;9.688;2023-04-26T13:29:45;17.00;33.90
45044;DHT22;30784;48.490;9.688;2023-04-26T13:32:11;17.10;33.90
45044;DHT22;30784;48.490;9.688;2023-04-26T13:34:36;17.10;34.00
45044;DHT22;30784;48.490;9.688;2023-04-26T13:37:02;17.10;33.80
45044;DHT22;30784;48.490;9.688;2023-04-26T13:39:28;17.10;33.80
45044;DHT22;30784;48.490;9.688;2023-04-26T13:41:54;17.20;33.90
45044;DHT22;30784;48.490;9.688;2023-04-26T13:44:20;17.20;33.90
45044;DHT22;30784;48.490;9.688;2023-04-26T13:46:46;17.20;33.90
45044;DHT22;30784;48.490;9.688;2023-04-26T13:49:12;17.30;33.80
45044;DHT22;30784;48.490;9.688;2023-04-26T13:51:38;17.30;33.70
45044;DHT22;30784;48.490;9.688;2023-04-26T13:54:05;17.30;33.50
45044;DHT22;30784;48.490;9.688;2023-04-26T13:56:31;17.30;33.60
45044;DHT22;30784;48.490;9.688;2023-04-26T13:58:58;17.40;33.50
45044;DHT22;30784;48.490;9.688;2023-04-26T14:01:29;17.40;33.50
45044;DHT22;30784;48.490;9.688;2023-04-26T14:03:55;17.50;33.40
45044;DHT22;30784;48.490;9.688;2023-04-26T14:06:21;17.60;33.10
45044;DHT22;30784;48.490;9.688;2023-04-26T14:08:46;17.60;32.90
45044;DHT22;30784;48.490;9.688;2023-04-26T14:11:13;17.70;33.10
45044;DHT22;30784;48.490;9.688;2023-04-26T14:13:40;17.70;32.80
45044;DHT22;30784;48.490;9.688;2023-04-26T14:16:06;17.60;32.60
45044;DHT22;30784;48.490;9.688;2023-04-26T14:18:32;17.60;32.60
45044;DHT22;30784;48.490;9.688;2023-04-26T14:20:58;17.50;32.40
45044;DHT22;30784;48.490;9.688;2023-04-26T14:23:23;17.50;32.20
45044;DHT22;30784;48.490;9.688;2023-04-26T14:25:52;17.40;32.30
45044;DHT22;30784;48.490;9.688;2023-04-26T14:28:19;17.30;32.30
45044;DHT22;30784;48.490;9.688;2023-04-26T14:30:44;17.20;32.50
45044;DHT22;30784;48.490;9.688;2023-04-26T14:33:10;17.20;32.50
45044;DHT22;30784;48.490;9.688;2023-04-26T14:35:37;17.20;32.80
45044;DHT22;30784;48.490;9.688;2023-04-26T14:38:02;17.20;32.70
45044;DHT22;30784;48.490;9.688;2023-04-26T14:40:28;17.20;32.70
45044;DHT22;30784;48.490;9.688;2023-04-26T14:42:54;17.20;32.60
45044;DHT22;30784;48.490;9.688;2023-04-26T14:45:20;17.30;33.00
45044;DHT22;30784;48.490;9.688;2023-04-26T14:47:45;17.40;33.00
45044;DHT22;30784;48.490;9.688;2023-04-26T14:50:11;17.60;32.80
45044;DHT22;30784;48.490;9.688;2023-04-26T14:52:38;17.80;33.00
45044;DHT22;30784;48.490;9.688;2023-04-26T14:55:04;18.00;32.80
45044;DHT22;30784;48.490;9.688;2023-04-26T14:57:30;18.20;32.30
45044;DHT22;30784;48.490;9.688;2023-04-26T14:59:57;18.20;32.20
45044;DHT22;30784;48.490;9.688;2023-04-26T15:02:30;18.40;31.90
45044;DHT22;30784;48.490;9.688;2023-04-26T15:04:56;18.50;31.60
45044;DHT22;30784;48.490;9.688;2023-04-26T15:07:21;18.50;31.50
45044;DHT22;30784;48.490;9.688;2023-04-26T15:09:47;18.70;31.30
45044;DHT22;30784;48.490;9.688;2023-04-26T15:12:12;18.70;31.00
45044;DHT22;30784;48.490;9.688;2023-04-26T15:14:38;18.80;30.90
45044;DHT22;30784;48.490;9.688;2023-04-26T15:17:03;18.90;30.70
45044;DHT22;30784;48.490;9.688;2023-04-26T15:19:29;18.90;30.50
45044;DHT22;30784;48.490;9.688;2023-04-26T15:21:54;18.90;30.40
45044;DHT22;30784;48.490;9.688;2023-04-26T15:24:20;18.90;30.50
45044;DHT22;30784;48.490;9.688;2023-04-26T15:26:45;18.90;30.60
45044;DHT22;30784;48.490;9.688;2023-04-26T15:29:11;19.00;30.40
45044;DHT22;30784;48.490;9.688;2023-04-26T15:31:36;19.00;30.20
45044;DHT22;30784;48.490;9.688;2023-04-26T15:34:02;18.90;30.10
45044;DHT22;30784;48.490;9.688;2023-04-26T15:36:28;18.90;30.20
45044;DHT22;30784;48.490;9.688;2023-04-26T15:38:53;18.90;30.50